Flight Track Log - Related Links

Times and Time Zones

All times are in EDT time to prevent confusion due to time zone crossing. See the N830QS flight status page for this flight to view local times or setup timezone preferences in your user account.

Time Position Orientation Groundspeed Altitude Reporting Facility
EDT Latitude Longitude Course Direction KTS MPH feet Rate Location/Type
Sun 11:38:32 AM 43.3233 -114.2072 228° Southwest 357 411 11,600  Level Salt Lake Center
Sun 11:39:00 AM 43.1226 -114.8793 228° Southwest  Level Estimated
Sun 11:39:34 AM 43.2497 -114.2722 213° Southwest 302 348 14,400  Level Salt Lake Center
Sun 11:40:00 AM 43.0588 -114.9759 228° Southwest  Level Estimated
Sun 11:40:36 AM 43.1692 -114.3250 206° Southwest 311 358 17,300  Level Salt Lake Center
Sun 11:41:00 AM 42.9949 -115.0723 228° Southwest  Level Estimated
Sun 11:41:38 AM 43.1064 -114.4047 223° Southwest 315 362 19,400  Level Salt Lake Center
Sun 11:42:00 AM 42.9309 -115.1685 228° Southwest  Level Estimated
Sun 11:42:40 AM 43.0478 -114.5011 230° Southwest 330 380 21,700  Level Salt Lake Center
Sun 11:43:00 AM 42.8669 -115.2645 228° Southwest  Level Estimated
Sun 11:43:42 AM 42.9800 -114.6106 230° Southwest 339 390 23,700  Level Salt Lake Center
Sun 11:44:44 AM 42.9169 -114.7100 229° Southwest 358 412 25,300 1,742 Climbing Salt Lake Center
Sun 11:45:46 AM 42.8431 -114.8275 229° Southwest 365 420 27,300 1,887 Climbing Salt Lake Center
Sun 11:46:48 AM 42.7789 -114.9289 229° Southwest 369 425 29,200 1,790 Climbing Salt Lake Center
Sun 11:47:50 AM 42.7142 -115.0303 229° Southwest 370 426 31,000 1,935 Climbing Salt Lake Center
Sun 11:48:52 AM 42.6403 -115.1469 229° Southwest 366 421 33,200 1,452 Climbing Salt Lake Center
Sun 11:49:54 AM 42.5761 -115.2472 229° Southwest 368 423 34,000 387 Climbing Salt Lake Center
Sun 11:50:56 AM 42.4969 -115.3700 229° Southwest 385 443 34,000  Level Salt Lake Center
Sun 11:51:58 AM 42.4300 -115.4731 229° Southwest 380 437 34,000  Level Salt Lake Center
Sun 11:53:00 AM 42.3528 -115.5939 229° Southwest 379 436 34,000  Level Salt Lake Center
Sun 11:54:02 AM 42.2844 -115.6972 228° Southwest 384 442 34,000  Level Salt Lake Center
Sun 11:55:04 AM 42.2056 -115.8181 229° Southwest 382 440 34,000  Level Salt Lake Center
Sun 11:56:06 AM 42.1381 -115.9225 229° Southwest 384 442 34,000  Level Salt Lake Center
Sun 11:57:08 AM 42.0586 -116.0433 228° Southwest 386 444 34,000  Level Salt Lake Center
Sun 11:58:10 AM 41.9944 -116.1403 228° Southwest 384 442 34,000  Level Salt Lake Center
Sun 11:59:12 AM 41.9150 -116.2603 228° Southwest 384 442 34,000  Level Salt Lake Center
Sun 12:00:14 PM 41.8472 -116.3636 229° Southwest 384 442 34,000  Level Salt Lake Center
Sun 12:01:17 PM 41.7675 -116.4831 228° Southwest 383 441 34,000  Level Salt Lake Center
Sun 12:02:19 PM 41.7003 -116.5833 228° Southwest 380 437 34,000  Level Salt Lake Center
Sun 12:04:23 PM 41.5514 -116.8033 228° Southwest 384 442 34,000  Level Salt Lake Center
Sun 12:05:25 PM 41.4722 -116.9222 228° Southwest 386 444 34,000  Level Salt Lake Center
Sun 12:06:27 PM 41.4033 -117.0244 228° Southwest 386 444 34,000  Level Salt Lake Center
Sun 12:07:29 PM 41.3228 -117.1425 228° Southwest 387 445 34,000  Level Salt Lake Center
Sun 12:08:31 PM 41.2550 -117.2431 228° Southwest 384 442 34,000  Level Salt Lake Center
Sun 12:09:33 PM 41.1858 -117.3431 227° Southwest 384 442 34,000  Level Salt Lake Center
Sun 12:10:35 PM 41.1069 -117.4586 228° Southwest 381 438 34,000  Level Salt Lake Center
Sun 12:11:37 PM 41.0383 -117.5572 227° Southwest 381 438 34,000  Level Salt Lake Center
Sun 12:12:39 PM 40.9586 -117.6722 227° Southwest 381 438 34,000  Level Salt Lake Center
Sun 12:13:41 PM 40.8900 -117.7708 227° Southwest 381 438 34,000  Level Salt Lake Center
Sun 12:14:43 PM 40.8106 -117.8858 228° Southwest 381 438 34,000  Level Salt Lake Center
Sun 12:15:45 PM 40.7414 -117.9839 227° Southwest 381 438 34,000  Level Salt Lake Center
Sun 12:16:47 PM 40.6589 -118.0972 226° Southwest 383 441 34,000  Level Salt Lake Center
Sun 12:17:49 PM 40.5911 -118.1947 228° Southwest 380 437 34,000  Level Salt Lake Center
Sun 12:18:51 PM 40.5122 -118.3078 227° Southwest 377 434 34,000  Level Salt Lake Center
Sun 12:19:53 PM 40.4425 -118.4036 226° Southwest 378 435 34,000  Level Salt Lake Center
Sun 12:20:32 PM 40.4006 -118.4644 228° Southwest 374 430 34,000 -677 Level Oakland Center
Sun 12:21:57 PM 40.2936 -118.6119 226° Southwest 380 437 32,600 -1,347 Descending Salt Lake Center
Sun 12:22:59 PM 40.2139 -118.7233 227° Southwest 373 429 30,700 -1,306 Descending Salt Lake Center
Sun 12:24:01 PM 40.1425 -118.8208 226° Southwest 373 429 29,900 -1,152 Descending Salt Lake Center
Sun 12:24:38 PM 40.1000 -118.8828 228° Southwest 375 432 28,800 -1,776 Descending Oakland Center
Sun 12:25:39 PM 40.0297 -118.9789 226° Southwest 370 426 27,000 -1,756 Descending Oakland Center
Sun 12:26:41 PM 39.9594 -119.0742 226° Southwest 367 422 25,200 -1,756 Descending Oakland Center
Sun 12:27:42 PM 39.8922 -119.1664 226° Southwest 354 407 23,400 -1,756 Descending Oakland Center
Sun 12:28:44 PM 39.8258 -119.2561 226° Southwest 346 398 21,600 -1,951 Descending Oakland Center
Sun 12:29:45 PM 39.7494 -119.3611 227° Southwest 337 388 19,400 -1,826 Descending Oakland Center
Sun 12:31:48 PM 39.6269 -119.5278 226° Southwest 314 361 16,000 -1,728 Descending Oakland Center
Sun 12:32:49 PM 39.5664 -119.6097 226° Southwest 315 362 14,100 -1,895 Descending Oakland Center
Sun 12:33:42 PM 39.5167 -119.6833 229° Southwest 299 344 12,400 -1,234 Descending Northern Cal TRACON
Sun 12:34:36 PM 39.4833 -119.7667 243° Southwest 384 442 11,900 -263 Descending Northern Cal TRACON
Sun 12:35:36 PM 39.4500 -119.8500 243° Southwest 230 265 11,900 -149 Level Northern Cal TRACON
Sun 12:36:37 PM 39.4167 -119.9167 237° Southwest 232 267 11,600 -476 Descending Northern Cal TRACON
Sun 12:37:42 PM 39.3667 -119.9833 226° Southwest 229 264 10,900 -350 Descending Northern Cal TRACON
Sun 12:38:37 PM 39.3167 -120.0167 207° Southwest 227 261 10,900  Level Northern Cal TRACON
Sun 12:39:37 PM 39.3167 -120.0167 97° East 227 261 10,900  Level Northern Cal TRACON
Sun 12:40:37 PM 39.3167 -120.0167 97° East 227 261 10,900  Level Northern Cal TRACON
Sun 12:41:42 PM 39.3167 -120.0167 97° East 227 261 10,900  Level Northern Cal TRACON
Sun 12:42:37 PM 39.3167 -120.0167 97° East 227 261 10,900  Level Northern Cal TRACON
Sun 12:45:00 PM 39.3167 -120.1333 270° West  Level FlightAware Approximate
Sun 12:52:00 PM 39.3200 -120.1396 270° West  Level Estimated
Sun 12:53:00 PM 39.3167 -120.1333 270° West  Level FlightAware Approximate
Sun 12:54:00 PM 39.3200 -120.1396 270° West  Level Estimated
Sun 12:55:00 PM 39.3167 -120.1333 270° West  Level FlightAware Approximate
Sun 12:56:00 PM 39.3200 -120.1396 270° West  Level Estimated
Sun 12:57:00 PM 39.3167 -120.1333 270° West  Level FlightAware Approximate
Sun 12:58:00 PM 39.3200 -120.1396 270° West  Level Estimated

Login

Don't have an account? Register now (free) for customized features, flight alerts, and more!